Latest Weather Observations for Coondewanna

IDW60801

Issued at 4:33 pm WST Friday 20 October 2017 (issued every 30 minutes, with the page automatically refreshed every 10 minutes)

About weather observations | Map of weather stations | Latest weather observations for WA | Other Formats
Station Details ID: 505051 Name: COONDEWANNA Lat: -22.96 Lon: 118.81 Height: 697.63 m
Data from the previous 72 hours. | See also: Recent months for locations in Western Australia
Date/Time
WST
Temp
°C
App
Temp
°C
Dew
Point
°C
Rel
Hum
%
Delta-T
°C
Wind Press
QNH
hPa
Press
MSL
hPa
Rain since
9am
mm
Dir  Spd
km/h
Gust
km/h
Spd
kts
Gust
kts
20/04:30pm 36.4 31.9 -0.1 10 18.7 E 13 22 7 12 1016.9 1012.1 0.0
20/04:00pm 36.0 30.7 -0.4 10 18.5 E 17 26 9 14 1016.9 1012.1 0.0
20/03:30pm 35.9 31.0 -0.5 10 18.5 E 15 22 8 12 1016.9 1012.1 0.0
20/03:00pm 35.9 31.4 -0.5 10 18.5 NNE 13 24 7 13 1017.1 1012.3 0.0
20/02:30pm 36.6 31.4 0.1 10 18.8 ENE 17 28 9 15 1017.2 1012.4 0.0
20/02:00pm 35.8 29.6 -0.5 10 18.4 E 22 35 12 19 1017.4 1012.7 0.0
20/01:30pm 35.9 29.7 -0.5 10 18.5 E 22 37 12 20 1017.7 1013.0 0.0
20/01:00pm 36.4 30.6 -0.1 10 18.7 ESE 20 32 11 17 1017.9 1013.2 0.0
20/12:30pm 34.7 27.4 -0.1 11 17.7 E 28 39 15 21 1018.5 1013.7 0.0
20/12:00pm 34.5 27.7 1.0 12 17.3 E 26 37 14 20 1018.9 1014.2 0.0
20/11:36am 34.0 27.0 1.7 13 16.8 E 28 46 15 25 1019.4 1014.7 0.0
20/11:30am 33.8 26.4 1.6 13 16.7 E 30 41 16 22 1019.4 1014.7 0.0
20/11:00am 33.0 26.5 2.9 15 15.9 ESE 26 41 14 22 1019.8 1015.0 0.0
20/10:30am 32.3 26.5 4.2 17 15.1 E 24 33 13 18 1020.4 1015.7 0.0
20/10:00am 31.3 25.8 4.2 18 14.4 E 22 46 12 25 1020.7 1016.0 0.0
20/09:30am 29.3 23.6 4.7 21 13.1 E 24 33 13 18 1020.9 1016.2 0.0
20/09:00am 28.3 23.0 5.2 23 12.3 E 22 33 12 18 1021.3 1016.6 0.0
20/08:30am 26.9 21.3 5.2 25 11.5 E 24 32 13 17 1021.3 1016.6 0.0
20/08:00am 25.0 18.6 5.2 28 10.3 E 28 39 15 21 1021.4 1016.7 0.0
20/07:30am 24.3 19.0 5.1 29 10.0 E 22 33 12 18 1021.3 1016.6 0.0
20/07:00am 23.4 18.5 5.3 31 9.4 E 20 35 11 19 1021.0 1016.3 0.0
20/06:30am 22.0 19.3 5.4 34 8.6 SE 9 13 5 7 1020.5 1015.8 0.0
20/06:00am 20.8 18.6 5.2 36 7.9 S 6 11 3 6 1020.2 1015.5 0.0
20/05:30am 20.5 18.1 5.3 37 7.8 SSW 7 11 4 6 1019.6 1014.9 0.0
20/05:00am 20.4 17.9 4.8 36 7.9 SW 7 11 4 6 1019.3 1014.6 0.0
20/04:30am 22.2 17.5 5.2 33 8.8 ESE 19 32 10 17 1019.0 1014.3 0.0
20/04:00am 22.5 17.9 5.4 33 8.8 ESE 19 32 10 17 1018.7 1014.0 0.0
20/03:30am 22.6 17.7 5.1 32 9.0 ESE 20 28 11 15 1018.5 1013.7 0.0
20/03:00am 23.0 17.0 5.4 32 9.1 ESE 26 39 14 21 1018.1 1013.4 0.0
20/02:30am 23.5 17.4 4.9 30 9.6 ESE 26 35 14 19 1017.9 1013.2 0.0
20/02:00am 23.8 17.3 4.7 29 9.8 ESE 28 35 15 19 1017.8 1013.1 0.0
20/01:30am 24.2 17.3 4.6 28 10.1 ESE 30 37 16 20 1017.8 1013.1 0.0
20/01:00am 24.6 17.2 3.8 26 10.6 E 32 43 17 23 1018.1 1013.4 0.0
20/12:30am 25.1 18.3 3.1 24 11.1 E 28 35 15 19 1018.1 1013.4 0.0
20/12:00am 25.7 17.7 1.8 21 11.8 ESE 33 46 18 25 1018.1 1013.4 0.0
 
Date/Time
WST
Temp
°C
App
Temp
°C
Dew
Point
°C
Rel
Hum
%
Delta-T
°C
Wind Press
QNH
hPa
Press
MSL
hPa
Rain since
9am
mm
Dir  Spd
km/h
Gust
km/h
Spd
kts
Gust
kts
19/11:30pm 26.2 17.7 0.8 19 12.4 ESE 35 44 19 24 1018.4 1013.6 0.0
19/11:00pm 26.7 19.1 0.4 18 12.8 ESE 30 41 16 22 1018.7 1014.0 0.0
19/10:30pm 27.1 19.7 -0.9 16 13.3 ESE 28 39 15 21 1019.0 1014.3 0.0
19/10:00pm 28.0 19.8 -1.0 15 13.9 ESE 32 41 17 22 1018.9 1014.2 0.0
19/09:30pm 27.6 21.7 -2.3 14 13.9 ESE 19 28 10 15 1019.0 1014.3 0.0
19/09:00pm 28.4 22.8 -2.6 13 14.4 ESE 17 22 9 12 1018.7 1014.0 0.0
19/08:30pm 28.1 23.3 -2.9 13 14.4 ESE 13 17 7 9 1018.5 1013.7 0.0
19/08:00pm 28.3 23.9 -2.7 13 14.4 ESE 11 15 6 8 1018.1 1013.4 0.0
19/07:30pm 28.2 24.0 -3.9 12 14.6 ESE 9 11 5 6 1017.8 1013.1 0.0
19/07:00pm 30.4 25.5 -3.3 11 15.7 SE 13 15 7 8 1017.5 1012.8 0.0
19/06:30pm 31.3 26.7 -3.9 10 16.4 SSE 11 13 6 7 1017.0 1012.2 0.0
19/06:00pm 32.8 29.1 -2.8 10 17.1 ESE 7 11 4 6 1016.5 1011.8 0.0
19/05:30pm 34.3 31.1 -3.1 9 18.0 NW 4 7 2 4 1016.2 1011.5 0.0
19/05:00pm 34.2 30.5 -3.2 9 18.0 NNE 7 13 4 7 1015.9 1011.1 0.0
19/04:30pm 33.3 28.7 -3.8 9 17.6 S 11 20 6 11 1015.8 1011.0 0.0
19/04:00pm 33.7 29.5 -3.5 9 17.8 E 9 15 5 8 1015.8 1011.0 0.0
19/03:30pm 33.8 28.5 -3.5 9 17.8 E 15 30 8 16 1015.6 1010.8 0.0
19/03:00pm 33.6 28.5 -2.2 10 17.4 SSE 15 28 8 15 1015.7 1010.9 0.0
19/02:30pm 33.3 29.7 -2.4 10 17.3 S 7 15 4 8 1015.8 1011.0 0.0
19/02:00pm 33.3 28.9 -2.4 10 17.3 N 11 20 6 11 1016.2 1011.5 0.0
19/01:30pm 32.6 28.3 -1.7 11 16.7 NW 11 17 6 9 1016.4 1011.7 0.0
19/01:00pm 32.1 27.1 -0.9 12 16.3 ENE 15 28 8 15 1016.8 1012.0 0.0
19/12:30pm 31.6 26.4 -0.1 13 15.8 ENE 17 28 9 15 1017.0 1012.2 0.0
19/12:00pm 31.9 26.1 0.1 13 15.9 E 20 33 11 18 1017.6 1012.9 0.0
19/11:30am 30.0 23.0 -0.4 14 14.9 E 26 35 14 19 1018.0 1013.3 0.0
19/11:00am 30.5 23.7 1.0 15 14.8 ESE 26 37 14 20 1018.6 1013.8 0.0
19/10:30am 29.4 22.1 0.1 15 14.4 E 28 39 15 21 1018.8 1014.1 0.0
19/10:00am 28.7 21.8 0.4 16 13.9 ESE 26 35 14 19 1019.0 1014.3 0.0
19/09:30am 26.9 19.2 -0.2 17 13.1 SE 30 39 16 21 1019.2 1014.5 0.0
19/09:00am 25.9 18.2 -0.2 18 12.5 ESE 30 41 16 22 1019.3 1014.6 0.0
19/08:30am 25.3 18.4 0.0 19 12.1 ESE 26 41 14 22 1019.2 1014.5 0.0
19/08:00am 23.9 16.6 0.3 21 11.2 ESE 28 41 15 22 1019.2 1014.5 0.0
19/07:30am 23.2 16.7 0.3 22 10.8 ESE 24 32 13 17 1019.0 1014.3 0.0
19/07:00am 21.7 16.4 -0.3 23 10.2 ESE 17 26 9 14 1018.8 1014.1 0.0
19/06:30am 20.8 17.4 -0.5 24 9.7 ESE 7 13 4 7 1018.4 1013.6 0.0
19/06:00am 20.1 16.4 0.0 26 9.2 SE 9 19 5 10 1017.9 1013.2 0.0
19/05:30am 19.6 15.5 -0.4 26 9.1 SE 11 17 6 9 1017.6 1012.9 0.0
19/05:00am 20.0 15.5 -0.1 26 9.2 ESE 13 20 7 11 1017.4 1012.7 0.0
19/04:30am 20.4 15.1 -0.3 25 9.5 SE 17 24 9 13 1017.1 1012.3 0.0
19/04:00am 19.7 15.6 -0.3 26 9.1 E 11 15 6 8 1016.7 1011.9 0.0
19/03:30am 19.9 16.1 -0.7 25 9.3 E 9 15 5 8 1016.4 1011.7 0.0
19/03:00am 19.9 15.7 -0.7 25 9.3 E 11 17 6 9 1016.3 1011.6 0.0
19/02:30am 19.4 16.1 -1.1 25 9.2 SE 6 9 3 5 1016.4 1011.7 0.0
19/02:00am 20.9 16.7 -1.0 23 9.9 ESE 11 19 6 10 1016.4 1011.7 0.0
19/01:30am 21.1 16.5 -1.4 22 10.1 ENE 13 17 7 9 1016.3 1011.6 0.0
19/01:00am 21.7 16.3 -1.6 21 10.5 ENE 17 20 9 11 1016.5 1011.8 0.0
19/12:30am 23.5 17.5 -1.4 19 11.4 SE 20 30 11 16 1016.5 1011.8 0.0
19/12:00am 23.9 18.4 -1.8 18 11.7 SE 17 26 9 14 1016.7 1011.9 0.0
 
Date/Time
WST
Temp
°C
App
Temp
°C
Dew
Point
°C
Rel
Hum
%
Delta-T
°C
Wind Press
QNH
hPa
Press
MSL
hPa
Rain since
9am
mm
Dir  Spd
km/h
Gust
km/h
Spd
kts
Gust
kts
18/11:30pm 24.3 18.3 -1.5 18 11.9 SSE 20 26 11 14 1017.0 1012.2 0.0
18/11:00pm 24.6 18.2 -2.0 17 12.2 SSE 22 32 12 17 1017.3 1012.5 0.0
18/10:30pm 25.0 18.9 -2.5 16 12.5 SSE 20 28 11 15 1017.5 1012.8 0.0
18/10:00pm 25.1 19.5 -2.5 16 12.6 SSE 17 28 9 15 1017.5 1012.8 0.0
18/09:30pm 25.4 19.5 -2.2 16 12.7 SSE 19 24 10 13 1017.4 1012.7 0.0
18/09:00pm 24.2 19.4 -2.4 17 12.0 SSE 13 17 7 9 1017.3 1012.5 0.0
18/08:30pm 24.3 19.5 -2.3 17 12.1 S 13 17 7 9 1017.1 1012.3 0.0
18/08:00pm 24.7 20.3 -2.8 16 12.4 SSE 11 13 6 7 1016.8 1012.0 0.0
18/07:30pm 25.6 21.5 -2.9 15 12.9 S 9 13 5 7 1016.5 1011.8 0.0
18/07:00pm 26.8 22.0 -2.9 14 13.6 S 13 15 7 8 1016.1 1011.4 0.0
18/06:30pm 27.8 22.4 -4.2 12 14.4 S 15 20 8 11 1015.7 1010.9 0.0
18/06:00pm 29.1 23.0 -4.3 11 15.2 SSW 19 26 10 14 1015.2 1010.4 0.0
18/05:30pm 30.0 23.8 -4.9 10 15.8 SSW 19 32 10 17 1014.7 1010.0 0.0
18/05:00pm 31.0 25.1 -5.5 9 16.5 SSW 17 28 9 15 1014.3 1009.5 0.0
18/04:30pm 31.5 26.4 -5.2 9 16.8 SSW 13 20 7 11 1014.0 1009.2 0.0
18/04:00pm 31.0 24.7 -5.5 9 16.5 S 19 28 10 15 1013.8 1009.0 0.0
18/03:30pm 31.6 25.4 -5.1 9 16.8 SSW 19 28 10 15 1013.7 1008.9 0.0
18/03:00pm 31.2 25.6 -6.9 8 16.9 SSW 15 33 8 18 1013.9 1009.1 0.0
18/02:30pm 31.1 26.6 -7.0 8 16.8 SSW 9 22 5 12 1013.8 1009.0 0.0
18/02:00pm 31.7 26.6 -5.0 9 16.8 S 13 20 7 11 1014.0 1009.2 0.0
18/01:30pm 30.2 24.4 -4.8 10 15.9 S 17 28 9 15 1014.2 1009.4 0.0
18/01:00pm 30.6 24.8 -4.4 10 16.1 SSW 17 28 9 15 1014.6 1009.8 0.0
18/12:30pm 29.8 24.3 -5.1 10 15.8 SSE 15 26 8 14 1015.2 1010.4 0.0
18/12:00pm 29.2 24.0 -3.1 12 15.0 S 15 26 8 14 1015.6 1010.8 0.0
18/11:30am 28.0 23.0 -1.0 15 13.9 SW 15 24 8 13 1015.8 1011.0 0.0
18/11:00am 28.1 23.1 1.6 18 13.3 S 17 28 9 15 1016.3 1011.6 0.0
18/10:30am 26.3 21.7 1.6 20 12.2 SSW 15 20 8 11 1016.8 1012.0 0.0
18/10:00am 25.2 21.1 2.0 22 11.5 S 13 20 7 11 1017.1 1012.3 0.0
18/09:30am 24.1 19.2 1.7 23 10.9 S 17 28 9 15 1017.3 1012.5 0.0
18/09:00am 23.6 18.2 2.4 25 10.4 S 20 32 11 17 1017.4 1012.7 0.0
18/08:30am 22.9 17.5 2.4 26 10.1 S 20 28 11 15 1017.3 1012.5 0.0
18/08:00am 22.3 16.2 2.9 28 9.6 S 24 35 13 19 1017.1 1012.3 0.0
18/07:30am 21.1 15.1 3.3 31 8.8 S 24 32 13 17 1016.9 1012.1 0.0
18/07:00am 20.0 14.9 2.8 32 8.3 S 19 30 10 16 1016.7 1011.9 0.0
18/06:30am 18.6 14.9 2.4 34 7.7 S 11 17 6 9 1016.3 1011.6 0.0
18/06:21am 17.7 14.8 2.8 37 7.1 SSW 7 15 4 8 1016.2 1011.5 0.0
18/06:00am 12.7 10.0 0.1 42 5.4 SW 4 7 2 4 1015.8 1011.0 0.0
18/05:30am 12.0 8.8 -0.8 41 5.4 SW 6 7 3 4 1015.3 1010.5 0.0
18/05:00am 12.0 8.8 -0.2 43 5.2 SW 6 9 3 5 1014.9 1010.2 0.0
18/04:30am 12.8 10.4 -0.4 40 5.6 SW 2 6 1 3 1014.7 1010.0 0.0
18/04:00am 13.7 10.4 -1.1 36 6.3 SW 6 9 3 5 1014.6 1009.8 0.0
18/03:30am 15.3 11.9 -0.9 33 7.0 SW 7 9 4 5 1014.2 1009.4 0.0
18/03:00am 17.8 13.3 -0.5 29 8.2 SSW 13 15 7 8 1013.9 1009.1 0.0
18/02:30am 19.1 14.9 -0.8 26 8.9 SSW 11 15 6 8 1013.9 1009.1 0.0
18/02:00am 19.6 15.0 -0.9 25 9.2 SSW 13 17 7 9 1013.8 1009.0 0.0
18/01:30am 20.3 15.0 -0.9 24 9.6 SSW 17 20 9 11 1013.8 1009.0 0.0
18/01:00am 19.6 15.8 -0.9 25 9.2 SW 9 13 5 7 1014.1 1009.3 0.0
18/12:30am 20.2 16.1 -0.4 25 9.4 SW 11 15 6 8 1014.1 1009.3 0.0
18/12:00am 21.0 16.9 -0.3 24 9.8 SW 11 13 6 7 1014.0 1009.2 0.0
 
Date/Time
WST
Temp
°C
App
Temp
°C
Dew
Point
°C
Rel
Hum
%
Delta-T
°C
Wind Press
QNH
hPa
Press
MSL
hPa
Rain since
9am
mm
Dir  Spd
km/h
Gust
km/h
Spd
kts
Gust
kts
17/11:30pm 22.1 18.1 0.6 24 10.1 SW 11 15 6 8 1014.2 1009.4 0.0
17/11:00pm 21.9 18.3 0.4 24 10.1 WSW 9 11 5 6 1014.3 1009.5 0.0
17/10:30pm 23.5 19.5 0.6 22 10.9 SW 11 13 6 7 1014.2 1009.4 0.0
17/10:00pm 24.3 20.3 0.6 21 11.4 SW 11 17 6 9 1014.2 1009.4 0.0
17/09:30pm 25.3 20.3 1.4 21 11.7 SW 17 19 9 10 1014.0 1009.2 0.0
17/09:00pm 25.8 21.1 1.2 20 12.1 SW 15 20 8 11 1013.8 1009.0 0.0
17/08:30pm 26.1 20.4 0.7 19 12.4 SW 20 28 11 15 1013.3 1008.5 0.0
17/08:00pm 26.5 22.1 0.3 18 12.7 SW 13 17 7 9 1013.0 1008.2 0.0
17/07:30pm 27.5 21.8 0.3 17 13.3 SW 20 26 11 14 1012.5 1007.7 0.0
17/07:00pm 28.1 22.3 -0.1 16 13.7 SW 20 28 11 15 1011.9 1007.1 0.0
17/06:30pm 29.1 23.4 0.7 16 14.1 WSW 20 32 11 17 1011.4 1006.6 0.0
17/06:00pm 30.3 23.5 0.8 15 14.8 WSW 26 35 14 19 1010.7 1005.8 0.0
17/05:30pm 31.6 26.5 0.9 14 15.5 WSW 17 26 9 14 1010.1 1005.3 0.0
17/05:00pm 31.7 25.8 1.9 15 15.4 W 22 33 12 18 1009.8 1005.0 0.0

Other Formats:

Comma delimited format used in spreadsheet applications
http://www.bom.gov.au/fwo/IDW60801/IDW60801.99312.axf

JavaScript Object Notation format (JSON) in row-major order
http://www.bom.gov.au/fwo/IDW60801/IDW60801.99312.json